This is the latest recevied weather packets stored in our database for station/object WE8M. If no packets are shown the sender has not sent any weather packets the latest 10 day(s).
| Time | Temp. | Humidity | Pressure | Rain* | Wind** | Luminosity | Snow |
|---|---|---|---|---|---|---|---|
| 1777570245 | 11.67° C | 65% | 1016.5 hPa | 0 mm | - | - | - |
| 1777569944 | 12.22° C | 63% | 1016.5 hPa | 0 mm | - | - | - |
| 1777569641 | 12.22° C | 60% | 1016.7 hPa | 0 mm | - | - | - |
| 1777569337 | 11.67° C | 71% | 1016.7 hPa | 0 mm | - | - | - |
| 1777569033 | 11.11° C | 69% | 1016.6 hPa | 0 mm | - | - | - |
| 1777568730 | 11.11° C | 68% | 1016.8 hPa | 0 mm | - | - | - |
| 1777568428 | 11.11° C | 67% | 1016.8 hPa | 0 mm | - | - | - |
| 1777568125 | 10.56° C | 66% | 1016.7 hPa | 0 mm | - | - | - |
| 1777567821 | 11.11° C | 63% | 1017 hPa | 0 mm | - | - | - |
| 1777567517 | 11.11° C | 62% | 1016.9 hPa | 0 mm | - | - | - |
| 1777567215 | 11.67° C | 60% | 1016.8 hPa | 0 mm | - | - | - |
| 1777566913 | 11.11° C | 62% | 1016.8 hPa | 0 mm | - | - | - |
| 1777566611 | 10.56° C | 62% | 1016.9 hPa | 0 mm | - | - | - |
| 1777566308 | 11.67° C | 61% | 1016.9 hPa | 0 mm | - | - | - |
| 1777566005 | 11.67° C | 66% | 1016.9 hPa | 0 mm | - | - | - |
| 1777565701 | 10° C | 72% | 1017 hPa | 0 mm | - | - | - |
| 1777565397 | 10° C | 67% | 1016.9 hPa | 0 mm | - | - | - |
| 1777565093 | 10.56° C | 64% | 1017 hPa | 0 mm | - | - | - |
| 1777564790 | 9.44° C | 72% | 1016.9 hPa | 0 mm | - | - | - |
| 1777564490 | 9.44° C | 70% | 1017.1 hPa | 0 mm | - | - | - |
| 1777564186 | 9.44° C | 70% | 1016.9 hPa | 0 mm | - | - | - |
| 1777563883 | 10° C | 71% | 1016.9 hPa | 0 mm | - | - | - |
| 1777563579 | 11.11° C | 64% | 1016.9 hPa | 0 mm | - | - | - |
| 1777563279 | 10.56° C | 69% | 1016.8 hPa | 0 mm | - | - | - |
| 1777562976 | 10° C | 72% | 1017 hPa | 0 mm | - | - | - |
* Rain latest hour (hover to see other rain measurements)
** Current wind speed in m/s (hover to see current wind gust speed)